sensor_id;sensor_type;location;lat;lon;timestamp;temperature;humidity
851;DHT22;412;51.400;7.480;2023-05-25T00:01:06;12.50;99.90
851;DHT22;412;51.400;7.480;2023-05-25T00:03:32;12.50;99.90
851;DHT22;412;51.400;7.480;2023-05-25T00:05:58;12.50;99.90
851;DHT22;412;51.400;7.480;2023-05-25T00:08:27;12.40;99.90
851;DHT22;412;51.400;7.480;2023-05-25T00:10:52;12.40;99.90
851;DHT22;412;51.400;7.480;2023-05-25T00:13:18;12.40;99.90
851;DHT22;412;51.400;7.480;2023-05-25T00:15:44;12.40;99.90
851;DHT22;412;51.400;7.480;2023-05-25T00:18:10;12.40;99.90
851;DHT22;412;51.400;7.480;2023-05-25T00:20:36;12.30;99.90
851;DHT22;412;51.400;7.480;2023-05-25T00:23:02;12.30;99.90
851;DHT22;412;51.400;7.480;2023-05-25T00:25:28;12.20;99.90
851;DHT22;412;51.400;7.480;2023-05-25T00:27:54;12.30;99.90
851;DHT22;412;51.400;7.480;2023-05-25T00:30:20;12.20;99.90
851;DHT22;412;51.400;7.480;2023-05-25T00:32:45;12.00;99.90
851;DHT22;412;51.400;7.480;2023-05-25T00:35:12;11.80;99.90
851;DHT22;412;51.400;7.480;2023-05-25T00:37:38;11.60;99.90
851;DHT22;412;51.400;7.480;2023-05-25T00:40:05;11.50;99.90
851;DHT22;412;51.400;7.480;2023-05-25T00:42:37;11.40;99.90
851;DHT22;412;51.400;7.480;2023-05-25T00:45:04;11.40;99.90
851;DHT22;412;51.400;7.480;2023-05-25T00:47:30;11.40;99.90
851;DHT22;412;51.400;7.480;2023-05-25T00:49:57;11.50;99.90
851;DHT22;412;51.400;7.480;2023-05-25T00:52:22;11.60;99.90
851;DHT22;412;51.400;7.480;2023-05-25T00:54:50;11.80;99.90
851;DHT22;412;51.400;7.480;2023-05-25T00:57:19;11.90;99.90
851;DHT22;412;51.400;7.480;2023-05-25T00:59:50;11.90;99.90
851;DHT22;412;51.400;7.480;2023-05-25T01:02:18;12.00;99.90
851;DHT22;412;51.400;7.480;2023-05-25T01:04:46;12.10;99.90
851;DHT22;412;51.400;7.480;2023-05-25T01:07:19;12.20;99.90
851;DHT22;412;51.400;7.480;2023-05-25T01:09:49;12.20;99.90
851;DHT22;412;51.400;7.480;2023-05-25T01:12:19;12.30;99.90
851;DHT22;412;51.400;7.480;2023-05-25T01:14:47;12.30;99.90
851;DHT22;412;51.400;7.480;2023-05-25T01:17:14;12.30;99.90
851;DHT22;412;51.400;7.480;2023-05-25T01:19:40;12.30;99.90
851;DHT22;412;51.400;7.480;2023-05-25T01:22:53;12.30;99.90
851;DHT22;412;51.400;7.480;2023-05-25T01:25:22;12.40;99.90
851;DHT22;412;51.400;7.480;2023-05-25T01:28:10;12.30;99.90
851;DHT22;412;51.400;7.480;2023-05-25T01:30:40;12.30;99.90
851;DHT22;412;51.400;7.480;2023-05-25T01:33:09;12.30;99.90
851;DHT22;412;51.400;7.480;2023-05-25T01:35:35;12.30;99.90
851;DHT22;412;51.400;7.480;2023-05-25T01:38:05;12.30;99.90
851;DHT22;412;51.400;7.480;2023-05-25T01:40:32;12.30;99.90
851;DHT22;412;51.400;7.480;2023-05-25T01:42:58;12.30;99.90
851;DHT22;412;51.400;7.480;2023-05-25T01:45:24;12.20;99.90
851;DHT22;412;51.400;7.480;2023-05-25T01:48:22;12.20;99.90
851;DHT22;412;51.400;7.480;2023-05-25T01:50:56;12.20;99.90
851;DHT22;412;51.400;7.480;2023-05-25T01:53:28;12.20;99.90
851;DHT22;412;51.400;7.480;2023-05-25T01:55:58;12.10;99.90
851;DHT22;412;51.400;7.480;2023-05-25T01:58:26;12.10;99.90
851;DHT22;412;51.400;7.480;2023-05-25T02:00:53;12.10;99.90
851;DHT22;412;51.400;7.480;2023-05-25T02:03:20;12.00;99.90
851;DHT22;412;51.400;7.480;2023-05-25T02:05:46;12.00;99.90
851;DHT22;412;51.400;7.480;2023-05-25T02:08:12;12.00;99.90
851;DHT22;412;51.400;7.480;2023-05-25T02:10:37;12.00;99.90
851;DHT22;412;51.400;7.480;2023-05-25T02:13:03;12.00;99.90
851;DHT22;412;51.400;7.480;2023-05-25T02:15:32;12.00;99.90
851;DHT22;412;51.400;7.480;2023-05-25T02:17:58;12.00;99.90
851;DHT22;412;51.400;7.480;2023-05-25T02:20:25;11.90;99.90
851;DHT22;412;51.400;7.480;2023-05-25T02:22:52;11.90;99.90
851;DHT22;412;51.400;7.480;2023-05-25T02:25:18;11.90;99.90
851;DHT22;412;51.400;7.480;2023-05-25T02:27:44;11.90;99.90
851;DHT22;412;51.400;7.480;2023-05-25T02:30:10;11.90;99.90
851;DHT22;412;51.400;7.480;2023-05-25T02:32:36;11.90;99.90
851;DHT22;412;51.400;7.480;2023-05-25T02:35:02;11.90;99.90
851;DHT22;412;51.400;7.480;2023-05-25T02:37:28;11.90;99.90
851;DHT22;412;51.400;7.480;2023-05-25T02:39:53;11.90;99.90
851;DHT22;412;51.400;7.480;2023-05-25T02:42:19;11.80;99.90
851;DHT22;412;51.400;7.480;2023-05-25T02:44:45;11.80;99.90
851;DHT22;412;51.400;7.480;2023-05-25T02:47:17;11.80;99.90
851;DHT22;412;51.400;7.480;2023-05-25T02:49:43;11.80;99.90
851;DHT22;412;51.400;7.480;2023-05-25T02:52:10;11.70;99.90
851;DHT22;412;51.400;7.480;2023-05-25T02:54:35;11.70;99.90
851;DHT22;412;51.400;7.480;2023-05-25T02:57:02;11.70;99.90
851;DHT22;412;51.400;7.480;2023-05-25T02:59:29;11.70;99.90
851;DHT22;412;51.400;7.480;2023-05-25T03:01:55;11.70;99.90
851;DHT22;412;51.400;7.480;2023-05-25T03:04:20;11.70;99.90
851;DHT22;412;51.400;7.480;2023-05-25T03:06:48;11.70;99.90
851;DHT22;412;51.400;7.480;2023-05-25T03:09:14;11.70;99.90
851;DHT22;412;51.400;7.480;2023-05-25T03:11:40;11.60;99.90
851;DHT22;412;51.400;7.480;2023-05-25T03:14:06;11.70;99.90
851;DHT22;412;51.400;7.480;2023-05-25T03:16:31;11.60;99.90
851;DHT22;412;51.400;7.480;2023-05-25T03:19:01;11.50;99.90
851;DHT22;412;51.400;7.480;2023-05-25T03:21:27;11.50;99.90
851;DHT22;412;51.400;7.480;2023-05-25T03:23:53;11.50;99.90
851;DHT22;412;51.400;7.480;2023-05-25T03:26:19;11.40;99.90
851;DHT22;412;51.400;7.480;2023-05-25T03:28:45;11.30;99.90
851;DHT22;412;51.400;7.480;2023-05-25T03:31:10;11.20;99.90
851;DHT22;412;51.400;7.480;2023-05-25T03:33:37;11.20;99.90
851;DHT22;412;51.400;7.480;2023-05-25T03:36:09;11.20;99.90
851;DHT22;412;51.400;7.480;2023-05-25T03:38:37;11.20;99.90
851;DHT22;412;51.400;7.480;2023-05-25T03:41:03;11.10;99.90
851;DHT22;412;51.400;7.480;2023-05-25T03:43:29;11.10;99.90
851;DHT22;412;51.400;7.480;2023-05-25T03:45:55;11.10;99.90
851;DHT22;412;51.400;7.480;2023-05-25T03:48:21;11.00;99.90
851;DHT22;412;51.400;7.480;2023-05-25T03:50:47;11.10;99.90
851;DHT22;412;51.400;7.480;2023-05-25T03:53:13;11.20;99.90
851;DHT22;412;51.400;7.480;2023-05-25T03:55:38;11.10;99.90
851;DHT22;412;51.400;7.480;2023-05-25T03:58:04;11.20;99.90
851;DHT22;412;51.400;7.480;2023-05-25T04:00:30;11.20;99.90
851;DHT22;412;51.400;7.480;2023-05-25T04:02:55;11.20;99.90
851;DHT22;412;51.400;7.480;2023-05-25T04:05:21;11.30;99.90
851;DHT22;412;51.400;7.480;2023-05-25T04:07:47;11.30;99.90
851;DHT22;412;51.400;7.480;2023-05-25T04:10:13;11.30;99.90
851;DHT22;412;51.400;7.480;2023-05-25T04:12:39;11.40;99.90
851;DHT22;412;51.400;7.480;2023-05-25T04:15:05;11.40;99.90
851;DHT22;412;51.400;7.480;2023-05-25T04:17:34;11.50;99.90
851;DHT22;412;51.400;7.480;2023-05-25T04:20:01;11.50;99.90
851;DHT22;412;51.400;7.480;2023-05-25T04:22:28;11.50;99.90
851;DHT22;412;51.400;7.480;2023-05-25T04:24:53;11.50;99.90
851;DHT22;412;51.400;7.480;2023-05-25T04:27:19;11.50;99.90
851;DHT22;412;51.400;7.480;2023-05-25T04:29:45;11.50;99.90
851;DHT22;412;51.400;7.480;2023-05-25T04:32:11;11.50;99.90
851;DHT22;412;51.400;7.480;2023-05-25T04:34:43;11.60;99.90
851;DHT22;412;51.400;7.480;2023-05-25T04:37:09;11.60;99.90
851;DHT22;412;51.400;7.480;2023-05-25T04:39:35;11.60;99.90
851;DHT22;412;51.400;7.480;2023-05-25T04:42:01;11.70;99.90
851;DHT22;412;51.400;7.480;2023-05-25T04:44:29;11.70;99.90
851;DHT22;412;51.400;7.480;2023-05-25T04:46:55;11.70;99.90
851;DHT22;412;51.400;7.480;2023-05-25T04:49:21;11.70;99.90
851;DHT22;412;51.400;7.480;2023-05-25T04:51:47;11.70;99.90
851;DHT22;412;51.400;7.480;2023-05-25T04:54:13;11.80;99.90
851;DHT22;412;51.400;7.480;2023-05-25T04:56:38;11.80;99.90
851;DHT22;412;51.400;7.480;2023-05-25T04:59:04;11.90;99.90
851;DHT22;412;51.400;7.480;2023-05-25T05:01:30;11.90;99.90
851;DHT22;412;51.400;7.480;2023-05-25T05:03:58;12.00;99.90
851;DHT22;412;51.400;7.480;2023-05-25T05:06:24;12.00;99.90
851;DHT22;412;51.400;7.480;2023-05-25T05:08:50;12.30;99.90
851;DHT22;412;51.400;7.480;2023-05-25T05:11:16;12.70;99.90
851;DHT22;412;51.400;7.480;2023-05-25T05:13:41;13.10;99.90
851;DHT22;412;51.400;7.480;2023-05-25T05:16:07;13.50;99.90
851;DHT22;412;51.400;7.480;2023-05-25T05:18:33;13.90;99.90
851;DHT22;412;51.400;7.480;2023-05-25T05:20:59;14.20;99.90
851;DHT22;412;51.400;7.480;2023-05-25T05:23:24;14.50;99.90
851;DHT22;412;51.400;7.480;2023-05-25T05:25:50;14.80;99.90
851;DHT22;412;51.400;7.480;2023-05-25T05:28:16;15.10;99.90
851;DHT22;412;51.400;7.480;2023-05-25T05:30:41;15.40;99.90
851;DHT22;412;51.400;7.480;2023-05-25T05:33:10;15.70;99.90
851;DHT22;412;51.400;7.480;2023-05-25T05:35:36;15.90;99.90
851;DHT22;412;51.400;7.480;2023-05-25T05:38:02;16.00;99.90
851;DHT22;412;51.400;7.480;2023-05-25T05:40:27;16.10;99.90
851;DHT22;412;51.400;7.480;2023-05-25T05:42:53;16.20;99.90
851;DHT22;412;51.400;7.480;2023-05-25T05:45:19;16.30;99.90
851;DHT22;412;51.400;7.480;2023-05-25T05:47:45;16.40;99.90
851;DHT22;412;51.400;7.480;2023-05-25T05:50:10;16.40;99.60
851;DHT22;412;51.400;7.480;2023-05-25T05:52:36;16.50;99.80
851;DHT22;412;51.400;7.480;2023-05-25T05:55:02;16.50;98.80
851;DHT22;412;51.400;7.480;2023-05-25T05:57:28;16.30;98.00
851;DHT22;412;51.400;7.480;2023-05-25T05:59:54;16.00;98.40
851;DHT22;412;51.400;7.480;2023-05-25T06:02:19;15.80;99.10
851;DHT22;412;51.400;7.480;2023-05-25T06:04:45;15.50;99.90
851;DHT22;412;51.400;7.480;2023-05-25T06:07:11;15.20;99.90
851;DHT22;412;51.400;7.480;2023-05-25T06:09:37;15.00;99.90
851;DHT22;412;51.400;7.480;2023-05-25T06:12:03;14.80;99.90
851;DHT22;412;51.400;7.480;2023-05-25T06:14:28;14.60;99.90
851;DHT22;412;51.400;7.480;2023-05-25T06:16:54;14.40;99.90
851;DHT22;412;51.400;7.480;2023-05-25T06:19:20;14.30;99.90
851;DHT22;412;51.400;7.480;2023-05-25T06:21:46;14.10;99.90
851;DHT22;412;51.400;7.480;2023-05-25T06:24:14;13.90;99.90
851;DHT22;412;51.400;7.480;2023-05-25T06:26:40;13.80;99.90
851;DHT22;412;51.400;7.480;2023-05-25T06:29:06;13.70;99.90
851;DHT22;412;51.400;7.480;2023-05-25T06:31:32;13.40;99.90
851;DHT22;412;51.400;7.480;2023-05-25T06:33:58;13.30;99.90
851;DHT22;412;51.400;7.480;2023-05-25T06:36:24;13.00;99.90
851;DHT22;412;51.400;7.480;2023-05-25T06:38:49;13.10;99.90
851;DHT22;412;51.400;7.480;2023-05-25T06:41:16;13.20;99.90
851;DHT22;412;51.400;7.480;2023-05-25T06:43:43;13.30;99.90
851;DHT22;412;51.400;7.480;2023-05-25T06:46:09;13.30;99.90
851;DHT22;412;51.400;7.480;2023-05-25T06:48:35;13.30;99.90
851;DHT22;412;51.400;7.480;2023-05-25T06:51:02;13.40;99.90
851;DHT22;412;51.400;7.480;2023-05-25T06:53:28;13.40;99.90
851;DHT22;412;51.400;7.480;2023-05-25T06:55:54;13.50;99.90
851;DHT22;412;51.400;7.480;2023-05-25T06:58:20;13.50;99.90
851;DHT22;412;51.400;7.480;2023-05-25T07:00:45;13.50;99.90
851;DHT22;412;51.400;7.480;2023-05-25T07:03:11;13.60;99.90
851;DHT22;412;51.400;7.480;2023-05-25T07:05:37;13.70;99.90
851;DHT22;412;51.400;7.480;2023-05-25T07:08:02;13.80;99.90
851;DHT22;412;51.400;7.480;2023-05-25T07:10:28;13.70;99.90
851;DHT22;412;51.400;7.480;2023-05-25T07:12:56;13.80;99.90
851;DHT22;412;51.400;7.480;2023-05-25T07:15:22;14.00;99.90
851;DHT22;412;51.400;7.480;2023-05-25T07:17:48;14.10;99.90
851;DHT22;412;51.400;7.480;2023-05-25T07:20:14;14.20;99.90
851;DHT22;412;51.400;7.480;2023-05-25T07:22:41;14.30;99.90
851;DHT22;412;51.400;7.480;2023-05-25T07:25:08;14.40;99.90
851;DHT22;412;51.400;7.480;2023-05-25T07:27:34;14.60;99.90
851;DHT22;412;51.400;7.480;2023-05-25T07:30:03;14.80;99.90
851;DHT22;412;51.400;7.480;2023-05-25T07:32:29;14.80;99.90
851;DHT22;412;51.400;7.480;2023-05-25T07:34:55;14.90;99.90
851;DHT22;412;51.400;7.480;2023-05-25T07:37:21;15.10;99.90
851;DHT22;412;51.400;7.480;2023-05-25T07:39:47;15.10;99.90
851;DHT22;412;51.400;7.480;2023-05-25T07:42:12;15.10;99.90
851;DHT22;412;51.400;7.480;2023-05-25T07:44:38;15.20;99.90
851;DHT22;412;51.400;7.480;2023-05-25T07:47:04;15.40;99.90
851;DHT22;412;51.400;7.480;2023-05-25T07:49:31;15.50;99.90
851;DHT22;412;51.400;7.480;2023-05-25T07:51:57;15.50;99.90
851;DHT22;412;51.400;7.480;2023-05-25T07:54:23;15.60;99.90
851;DHT22;412;51.400;7.480;2023-05-25T07:56:48;15.60;99.90
851;DHT22;412;51.400;7.480;2023-05-25T07:59:14;15.50;99.90
851;DHT22;412;51.400;7.480;2023-05-25T08:01:40;15.40;99.90
851;DHT22;412;51.400;7.480;2023-05-25T08:04:05;15.50;99.90
851;DHT22;412;51.400;7.480;2023-05-25T08:06:31;15.40;99.90
851;DHT22;412;51.400;7.480;2023-05-25T08:08:57;15.40;99.90
851;DHT22;412;51.400;7.480;2023-05-25T08:11:23;15.40;99.90
851;DHT22;412;51.400;7.480;2023-05-25T08:13:52;15.40;99.90
851;DHT22;412;51.400;7.480;2023-05-25T08:16:18;15.40;99.90
851;DHT22;412;51.400;7.480;2023-05-25T08:18:43;15.40;99.90
851;DHT22;412;51.400;7.480;2023-05-25T08:21:11;15.50;99.90
851;DHT22;412;51.400;7.480;2023-05-25T08:23:39;15.60;99.90
851;DHT22;412;51.400;7.480;2023-05-25T08:26:08;15.70;99.90
851;DHT22;412;51.400;7.480;2023-05-25T08:28:33;15.70;99.90
851;DHT22;412;51.400;7.480;2023-05-25T08:30:59;15.70;99.90
851;DHT22;412;51.400;7.480;2023-05-25T08:33:25;15.70;99.90
851;DHT22;412;51.400;7.480;2023-05-25T08:35:51;15.60;99.90
851;DHT22;412;51.400;7.480;2023-05-25T08:38:17;15.70;99.90
851;DHT22;412;51.400;7.480;2023-05-25T08:40:44;15.70;99.90
851;DHT22;412;51.400;7.480;2023-05-25T08:43:10;15.70;99.90
851;DHT22;412;51.400;7.480;2023-05-25T08:45:36;15.80;99.90
851;DHT22;412;51.400;7.480;2023-05-25T08:48:03;15.80;99.90
851;DHT22;412;51.400;7.480;2023-05-25T08:50:32;15.90;99.90
851;DHT22;412;51.400;7.480;2023-05-25T08:53:02;15.90;99.90
851;DHT22;412;51.400;7.480;2023-05-25T08:55:32;15.90;99.90
851;DHT22;412;51.400;7.480;2023-05-25T08:58:16;16.00;99.90
851;DHT22;412;51.400;7.480;2023-05-25T09:00:49;16.00;99.90
851;DHT22;412;51.400;7.480;2023-05-25T09:03:16;16.10;99.90
851;DHT22;412;51.400;7.480;2023-05-25T09:05:45;16.10;99.90
851;DHT22;412;51.400;7.480;2023-05-25T09:08:12;16.10;99.90
851;DHT22;412;51.400;7.480;2023-05-25T09:10:38;16.00;99.90
851;DHT22;412;51.400;7.480;2023-05-25T09:13:04;16.00;99.90
851;DHT22;412;51.400;7.480;2023-05-25T09:15:34;15.90;99.90
851;DHT22;412;51.400;7.480;2023-05-25T09:18:00;15.90;99.90
851;DHT22;412;51.400;7.480;2023-05-25T09:20:25;15.90;99.90
851;DHT22;412;51.400;7.480;2023-05-25T09:22:59;15.90;99.90
851;DHT22;412;51.400;7.480;2023-05-25T09:25:27;15.90;99.90
851;DHT22;412;51.400;7.480;2023-05-25T09:27:53;16.00;99.90
851;DHT22;412;51.400;7.480;2023-05-25T09:30:21;16.10;99.90
851;DHT22;412;51.400;7.480;2023-05-25T09:32:46;16.10;99.90
851;DHT22;412;51.400;7.480;2023-05-25T09:35:13;16.10;99.90
851;DHT22;412;51.400;7.480;2023-05-25T09:37:41;16.10;99.90
851;DHT22;412;51.400;7.480;2023-05-25T09:40:07;16.10;99.90
851;DHT22;412;51.400;7.480;2023-05-25T09:42:34;16.10;99.90
851;DHT22;412;51.400;7.480;2023-05-25T09:45:04;16.00;99.90
851;DHT22;412;51.400;7.480;2023-05-25T09:47:30;16.00;99.90
851;DHT22;412;51.400;7.480;2023-05-25T09:49:56;15.90;99.90
851;DHT22;412;51.400;7.480;2023-05-25T09:52:23;15.90;99.90
851;DHT22;412;51.400;7.480;2023-05-25T09:54:49;15.90;99.90
851;DHT22;412;51.400;7.480;2023-05-25T09:57:17;15.90;99.90
851;DHT22;412;51.400;7.480;2023-05-25T09:59:43;15.90;99.90
851;DHT22;412;51.400;7.480;2023-05-25T10:02:10;15.90;99.90
851;DHT22;412;51.400;7.480;2023-05-25T10:04:37;15.90;99.90
851;DHT22;412;51.400;7.480;2023-05-25T10:07:04;15.80;99.90
851;DHT22;412;51.400;7.480;2023-05-25T10:09:30;15.90;99.90
851;DHT22;412;51.400;7.480;2023-05-25T10:11:57;15.90;99.90
851;DHT22;412;51.400;7.480;2023-05-25T10:14:28;15.90;99.90
851;DHT22;412;51.400;7.480;2023-05-25T10:16:56;15.90;99.90
851;DHT22;412;51.400;7.480;2023-05-25T10:22:39;15.80;99.90
851;DHT22;412;51.400;7.480;2023-05-25T10:25:17;15.80;99.90
851;DHT22;412;51.400;7.480;2023-05-25T10:27:50;15.70;99.90
851;DHT22;412;51.400;7.480;2023-05-25T10:30:20;15.70;99.90
851;DHT22;412;51.400;7.480;2023-05-25T10:32:46;15.70;99.90
851;DHT22;412;51.400;7.480;2023-05-25T10:35:13;15.80;99.90
851;DHT22;412;51.400;7.480;2023-05-25T10:37:39;15.70;99.90
851;DHT22;412;51.400;7.480;2023-05-25T10:40:06;15.70;99.90
851;DHT22;412;51.400;7.480;2023-05-25T10:42:34;15.70;99.90
851;DHT22;412;51.400;7.480;2023-05-25T10:45:06;15.70;99.90
851;DHT22;412;51.400;7.480;2023-05-25T10:47:35;15.70;99.90
851;DHT22;412;51.400;7.480;2023-05-25T10:50:02;15.80;99.90
851;DHT22;412;51.400;7.480;2023-05-25T10:52:29;15.80;99.90
851;DHT22;412;51.400;7.480;2023-05-25T10:54:59;15.90;99.90
851;DHT22;412;51.400;7.480;2023-05-25T10:57:26;16.00;99.90
851;DHT22;412;51.400;7.480;2023-05-25T11:00:02;15.90;99.90
851;DHT22;412;51.400;7.480;2023-05-25T11:02:50;15.90;99.90
851;DHT22;412;51.400;7.480;2023-05-25T11:13:48;16.00;99.90
851;DHT22;412;51.400;7.480;2023-05-25T11:16:22;16.00;99.90
851;DHT22;412;51.400;7.480;2023-05-25T11:19:00;16.00;99.90
851;DHT22;412;51.400;7.480;2023-05-25T11:24:01;16.10;99.90
851;DHT22;412;51.400;7.480;2023-05-25T11:26:29;16.20;99.90
851;DHT22;412;51.400;7.480;2023-05-25T11:28:57;16.20;99.90
851;DHT22;412;51.400;7.480;2023-05-25T11:31:28;16.20;99.90
851;DHT22;412;51.400;7.480;2023-05-25T11:34:01;16.20;99.90
851;DHT22;412;51.400;7.480;2023-05-25T11:36:30;16.20;99.90
851;DHT22;412;51.400;7.480;2023-05-25T11:38:59;16.20;99.90
851;DHT22;412;51.400;7.480;2023-05-25T11:41:29;16.30;99.90
851;DHT22;412;51.400;7.480;2023-05-25T11:44:02;16.30;99.90
851;DHT22;412;51.400;7.480;2023-05-25T11:46:28;16.30;99.90
851;DHT22;412;51.400;7.480;2023-05-25T11:48:58;16.40;99.90
851;DHT22;412;51.400;7.480;2023-05-25T11:51:28;16.40;99.90
851;DHT22;412;51.400;7.480;2023-05-25T11:53:54;16.40;99.90
851;DHT22;412;51.400;7.480;2023-05-25T11:56:20;16.50;99.90
851;DHT22;412;51.400;7.480;2023-05-25T11:58:52;16.60;99.90
851;DHT22;412;51.400;7.480;2023-05-25T12:03:51;16.60;99.90
851;DHT22;412;51.400;7.480;2023-05-25T12:06:23;16.70;99.90
851;DHT22;412;51.400;7.480;2023-05-25T12:08:51;16.60;99.90
851;DHT22;412;51.400;7.480;2023-05-25T12:11:18;16.60;99.90
851;DHT22;412;51.400;7.480;2023-05-25T12:13:52;16.80;99.90
851;DHT22;412;51.400;7.480;2023-05-25T12:16:18;16.80;99.90
851;DHT22;412;51.400;7.480;2023-05-25T12:18:44;16.90;99.90
851;DHT22;412;51.400;7.480;2023-05-25T12:21:10;17.00;99.90
851;DHT22;412;51.400;7.480;2023-05-25T12:23:36;17.00;99.90
851;DHT22;412;51.400;7.480;2023-05-25T12:26:13;17.00;99.90
851;DHT22;412;51.400;7.480;2023-05-25T12:28:40;17.00;99.90
851;DHT22;412;51.400;7.480;2023-05-25T12:31:21;17.00;99.90
851;DHT22;412;51.400;7.480;2023-05-25T12:36:50;17.00;99.90
851;DHT22;412;51.400;7.480;2023-05-25T12:42:00;17.30;99.90
851;DHT22;412;51.400;7.480;2023-05-25T12:44:36;17.40;99.90
851;DHT22;412;51.400;7.480;2023-05-25T12:47:09;17.50;99.90
851;DHT22;412;51.400;7.480;2023-05-25T12:49:37;17.50;99.70
851;DHT22;412;51.400;7.480;2023-05-25T12:52:04;17.40;98.70
851;DHT22;412;51.400;7.480;2023-05-25T12:55:07;17.40;98.40
851;DHT22;412;51.400;7.480;2023-05-25T12:57:33;17.30;99.60
851;DHT22;412;51.400;7.480;2023-05-25T13:00:02;17.30;99.90
851;DHT22;412;51.400;7.480;2023-05-25T13:02:28;17.30;99.90
851;DHT22;412;51.400;7.480;2023-05-25T13:04:54;17.20;99.90
851;DHT22;412;51.400;7.480;2023-05-25T13:07:19;17.20;99.90
851;DHT22;412;51.400;7.480;2023-05-25T13:09:47;17.20;99.90
851;DHT22;412;51.400;7.480;2023-05-25T13:12:12;17.20;99.90
851;DHT22;412;51.400;7.480;2023-05-25T13:14:38;17.30;99.90
851;DHT22;412;51.400;7.480;2023-05-25T13:17:04;17.40;99.90
851;DHT22;412;51.400;7.480;2023-05-25T13:19:30;17.40;99.90
851;DHT22;412;51.400;7.480;2023-05-25T13:21:59;17.40;99.90
851;DHT22;412;51.400;7.480;2023-05-25T13:24:24;17.50;99.90
851;DHT22;412;51.400;7.480;2023-05-25T13:26:50;17.40;99.90
851;DHT22;412;51.400;7.480;2023-05-25T13:29:16;17.40;99.90
851;DHT22;412;51.400;7.480;2023-05-25T13:31:43;17.50;99.90
851;DHT22;412;51.400;7.480;2023-05-25T13:34:09;17.50;99.90
851;DHT22;412;51.400;7.480;2023-05-25T13:36:35;17.50;99.90
851;DHT22;412;51.400;7.480;2023-05-25T13:39:01;17.50;99.90
851;DHT22;412;51.400;7.480;2023-05-25T13:41:29;17.50;99.90
851;DHT22;412;51.400;7.480;2023-05-25T13:43:55;17.50;99.80
851;DHT22;412;51.400;7.480;2023-05-25T13:46:21;17.50;99.90
851;DHT22;412;51.400;7.480;2023-05-25T13:48:47;17.70;99.90
851;DHT22;412;51.400;7.480;2023-05-25T13:51:16;17.80;99.90
851;DHT22;412;51.400;7.480;2023-05-25T13:53:42;17.90;99.00
851;DHT22;412;51.400;7.480;2023-05-25T13:56:08;17.90;97.80
851;DHT22;412;51.400;7.480;2023-05-25T13:58:35;17.90;98.10
851;DHT22;412;51.400;7.480;2023-05-25T14:01:02;17.90;98.60
851;DHT22;412;51.400;7.480;2023-05-25T14:03:28;17.90;98.20
851;DHT22;412;51.400;7.480;2023-05-25T14:05:53;17.80;97.70
851;DHT22;412;51.400;7.480;2023-05-25T14:08:19;17.70;96.80
851;DHT22;412;51.400;7.480;2023-05-25T14:10:45;17.70;98.30
851;DHT22;412;51.400;7.480;2023-05-25T14:13:11;17.70;98.20
851;DHT22;412;51.400;7.480;2023-05-25T14:15:37;17.70;98.20
851;DHT22;412;51.400;7.480;2023-05-25T14:18:03;17.70;98.10
851;DHT22;412;51.400;7.480;2023-05-25T14:20:28;17.60;98.60
851;DHT22;412;51.400;7.480;2023-05-25T14:22:58;17.50;98.90
851;DHT22;412;51.400;7.480;2023-05-25T14:25:24;17.40;99.90
851;DHT22;412;51.400;7.480;2023-05-25T14:27:50;17.50;99.90
851;DHT22;412;51.400;7.480;2023-05-25T14:30:16;17.50;99.90
851;DHT22;412;51.400;7.480;2023-05-25T14:32:42;17.50;98.90
851;DHT22;412;51.400;7.480;2023-05-25T14:35:08;17.40;98.60
851;DHT22;412;51.400;7.480;2023-05-25T14:37:34;17.40;99.10
851;DHT22;412;51.400;7.480;2023-05-25T14:40:02;17.40;99.90
851;DHT22;412;51.400;7.480;2023-05-25T14:42:28;17.60;99.80
851;DHT22;412;51.400;7.480;2023-05-25T14:44:55;17.70;98.60
851;DHT22;412;51.400;7.480;2023-05-25T14:47:30;17.90;97.90
851;DHT22;412;51.400;7.480;2023-05-25T14:49:56;18.00;97.20
851;DHT22;412;51.400;7.480;2023-05-25T14:52:22;18.00;96.70
851;DHT22;412;51.400;7.480;2023-05-25T14:54:48;18.00;97.10
851;DHT22;412;51.400;7.480;2023-05-25T14:57:14;18.00;96.50
851;DHT22;412;51.400;7.480;2023-05-25T14:59:42;17.90;96.50
851;DHT22;412;51.400;7.480;2023-05-25T15:02:08;17.90;95.90
851;DHT22;412;51.400;7.480;2023-05-25T15:04:34;17.90;95.60
851;DHT22;412;51.400;7.480;2023-05-25T15:07:00;17.80;95.40
851;DHT22;412;51.400;7.480;2023-05-25T15:09:25;17.90;96.20
851;DHT22;412;51.400;7.480;2023-05-25T15:11:51;17.80;95.90
851;DHT22;412;51.400;7.480;2023-05-25T15:14:17;17.80;95.60
851;DHT22;412;51.400;7.480;2023-05-25T15:16:43;17.70;96.10
851;DHT22;412;51.400;7.480;2023-05-25T15:19:09;17.80;95.80
851;DHT22;412;51.400;7.480;2023-05-25T15:21:35;17.80;95.80
851;DHT22;412;51.400;7.480;2023-05-25T15:24:01;17.70;95.40
851;DHT22;412;51.400;7.480;2023-05-25T15:26:27;17.80;94.30
851;DHT22;412;51.400;7.480;2023-05-25T15:28:53;17.80;94.90
851;DHT22;412;51.400;7.480;2023-05-25T15:31:18;17.80;94.30
851;DHT22;412;51.400;7.480;2023-05-25T15:33:44;17.90;94.60
851;DHT22;412;51.400;7.480;2023-05-25T15:36:12;17.90;96.20
851;DHT22;412;51.400;7.480;2023-05-25T15:38:37;18.00;95.30
851;DHT22;412;51.400;7.480;2023-05-25T15:41:03;18.00;95.50
851;DHT22;412;51.400;7.480;2023-05-25T15:43:29;18.00;95.30
851;DHT22;412;51.400;7.480;2023-05-25T15:45:55;18.00;95.30
851;DHT22;412;51.400;7.480;2023-05-25T15:48:20;18.00;95.20
851;DHT22;412;51.400;7.480;2023-05-25T15:50:47;18.10;94.90
851;DHT22;412;51.400;7.480;2023-05-25T15:53:12;18.10;95.30
851;DHT22;412;51.400;7.480;2023-05-25T15:55:38;18.10;96.60
851;DHT22;412;51.400;7.480;2023-05-25T15:58:04;18.20;95.80
851;DHT22;412;51.400;7.480;2023-05-25T16:00:30;18.30;95.10
851;DHT22;412;51.400;7.480;2023-05-25T16:02:57;18.20;94.60
851;DHT22;412;51.400;7.480;2023-05-25T16:05:23;18.10;94.90
851;DHT22;412;51.400;7.480;2023-05-25T16:07:48;17.90;95.20
851;DHT22;412;51.400;7.480;2023-05-25T16:10:14;17.80;95.40
851;DHT22;412;51.400;7.480;2023-05-25T16:12:40;17.80;95.60
851;DHT22;412;51.400;7.480;2023-05-25T16:15:06;17.70;95.00
851;DHT22;412;51.400;7.480;2023-05-25T16:17:32;17.60;95.50
851;DHT22;412;51.400;7.480;2023-05-25T16:19:58;17.60;95.70
851;DHT22;412;51.400;7.480;2023-05-25T16:22:24;17.60;95.40
851;DHT22;412;51.400;7.480;2023-05-25T16:24:49;17.60;95.80
851;DHT22;412;51.400;7.480;2023-05-25T16:27:15;17.50;95.40
851;DHT22;412;51.400;7.480;2023-05-25T16:29:41;17.20;96.60
851;DHT22;412;51.400;7.480;2023-05-25T16:32:07;17.30;97.80
851;DHT22;412;51.400;7.480;2023-05-25T16:34:32;17.20;95.80
851;DHT22;412;51.400;7.480;2023-05-25T16:36:58;17.20;96.70
851;DHT22;412;51.400;7.480;2023-05-25T16:39:24;17.30;98.40
851;DHT22;412;51.400;7.480;2023-05-25T16:41:50;17.40;99.90
851;DHT22;412;51.400;7.480;2023-05-25T16:44:16;17.40;96.20
851;DHT22;412;51.400;7.480;2023-05-25T16:46:42;17.40;96.50
851;DHT22;412;51.400;7.480;2023-05-25T16:49:07;17.30;97.80
851;DHT22;412;51.400;7.480;2023-05-25T16:51:33;17.70;97.70
851;DHT22;412;51.400;7.480;2023-05-25T16:53:59;17.80;98.80
851;DHT22;412;51.400;7.480;2023-05-25T16:56:24;18.10;98.00